Airfield :
LOGIN :

Register | Disclaimer

   EN    FR    IT 

 










Legend :    VFR   Marginal VFR   IFR   Intensive IFR   Very Intensive IFR
Visi :
Ceiling :
>= 8 km
>= 3000ft
5 to 8 km
1000 to 3000 ft
1500m to 5 km
500 to 1000 ft
800 to 1500m
200 to 500 ft
< 800m
< 200 ft
Symbols :   Thunderstorms  Fog  Heavy snow  Heavy precipitations  Wind > 20 kt
SIGMETs :     Misc.  Thunderstorms  Icing  Turbulence  Mountain Waves  Volcanic Ashes






- Airport Elevation : 427 ft
- IATA code : CIA


LIRA - Roma Ciampino

CURRENT METAR :
  • 250920Z 15007KT 120V200 9999 FEW045 26/13 Q1013

EXPIRED METARs :
  • 250850Z 18004KT 130V250 9999 FEW040 25/15 Q1013
  • 250820Z 21004KT 120V280 9999 FEW040 24/14 Q1013
  • 250750Z 19005KT 160V220 9999 FEW030 23/13 Q1013
  • 250720Z VRB03KT 9999 FEW030 23/13 Q1013
  • 250650Z 18004KT 120V220 9999 FEW030 22/13 Q1013
  • 250620Z 16006KT 130V200 CAVOK 22/12 Q1013
  • 250550Z 14004KT 100V200 CAVOK 22/15 Q1013
  • 250520Z VRB02KT CAVOK 20/15 Q1013
  • 250450Z 10005KT CAVOK 18/13 Q1012

TAF AMD TAF LIRA
Valid from the 25 at 06:00 until the 26 at 06:00 UTC


250700Z 2506/2606 VRB05KT 9999 FEW040
BECMG 2510/2512 18012KT
PROB40
TEMPO 2512/2518 RA
BECMG 2517/2519 VRB05KT



MET'MAP, your aeronautical weather chart ! - Copyright ORBIFLY December 2007 - Disclaimer

ORBIFLY MET'MAP TEAM :

Programming & Development : Alexandra Zaïnal
Original concept : Baudouin d'Aumeries
Technical & hardware support : Manuel Goepfert
Assistance : Marc-Olivier Méhu




SOURCES & CREDITS :

   NOAA